Metar z połowy godziny Komunikat METAR ze strony awiacja.imgw.pl Metar G00 EPLB METAR EPLB 230230Z 18009KT CAVOK 09/05 Q0998 =